Time;durP1;ratioP1;P1;durP2;ratioP2;P2;SDS_P1;SDS_P2;PMS_P1;PMS_P2;Temp;Humidity;BMP_temperature;BMP_pressure;BME280_temperature;BME280_humidity;BME280_pressure;Samples;Min_cycle;Max_cycle;Signal;HPM_P1;HPM_P2
2021/05/20 06:10:57;;;;;;;16.92;11.38;;;;;;;;;;5055192;27;20427;-64
2021/05/20 06:13:22;;;;;;;21.70;12.02;;;;;;;;;;5058045;28;20021;-64
2021/05/20 06:15:48;;;;;;;17.70;10.38;;;;;;;;;;5056178;28;20374;-65
2021/05/20 06:18:13;;;;;;;14.68;10.80;;;;;;;;;;5056639;28;20020;-64
2021/05/20 06:20:39;;;;;;;15.48;10.25;;;;;;;;;;5059659;28;20021;-65
2021/05/20 06:23:07;;;;;;;13.52;10.65;;;;;;;;;;5056564;28;20051;-65
2021/05/20 06:25:32;;;;;;;17.90;10.18;;;;;;;;;;5059471;28;20043;-64
2021/05/20 06:27:58;;;;;;;13.80;10.02;;;;;;;;;;5060807;28;20108;-64
2021/05/20 06:30:23;;;;;;;12.75;9.43;;;;;;;;;;5054611;28;20762;-63
2021/05/20 06:32:49;;;;;;;13.82;9.38;;;;;;;;;;5063776;28;20024;-63
2021/05/20 06:35:15;;;;;;;12.15;9.82;;;;;;;;;;5059269;28;20059;-64
2021/05/20 06:37:42;;;;;;;13.13;9.23;;;;;;;;;;5072440;28;20067;-63
2021/05/20 06:40:08;;;;;;;12.52;8.75;;;;;;;;;;5058459;28;20028;-63
2021/05/20 06:42:40;;;;;;;10.85;8.57;;;;;;;;;;5079719;28;20020;-63
2021/05/20 06:45:06;;;;;;;10.88;8.63;;;;;;;;;;5082239;28;20043;-64
2021/05/20 06:47:32;;;;;;;12.30;9.07;;;;;;;;;;5058663;28;20024;-63
2021/05/20 06:49:58;;;;;;;11.05;8.15;;;;;;;;;;5069209;28;20366;-63
2021/05/20 06:52:23;;;;;;;13.23;8.80;;;;;;;;;;5069094;28;20372;-63
2021/05/20 06:54:49;;;;;;;10.52;8.40;;;;;;;;;;5066970;28;20027;-63
2021/05/20 06:57:26;;;;;;;13.25;8.70;;;;;;;;;;5068005;28;20017;-63
2021/05/20 07:00:00;;;;;;;11.02;7.93;;;;;;;;;;5067358;28;20036;-63
2021/05/20 07:02:26;;;;;;;13.35;8.63;;;;;;;;;;5052713;28;20525;-63
2021/05/20 07:04:52;;;;;;;9.48;7.40;;;;;;;;;;5060033;28;20117;-63
2021/05/20 07:07:17;;;;;;;11.80;8.00;;;;;;;;;;5070827;28;20025;-63
2021/05/20 07:09:43;;;;;;;12.52;8.25;;;;;;;;;;5066485;28;20372;-63
2021/05/20 07:12:09;;;;;;;11.18;7.95;;;;;;;;;;5075004;28;20027;-62
2021/05/20 07:14:34;;;;;;;10.52;8.10;;;;;;;;;;5072638;28;20017;-63
2021/05/20 07:17:00;;;;;;;12.18;8.20;;;;;;;;;;5050025;28;20025;-63
2021/05/20 07:19:26;;;;;;;10.38;7.47;;;;;;;;;;5058980;28;20048;-63
2021/05/20 07:21:51;;;;;;;11.00;8.13;;;;;;;;;;5065217;28;20126;-63
2021/05/20 07:24:17;;;;;;;11.63;8.68;;;;;;;;;;5054768;28;20024;-63
2021/05/20 07:26:43;;;;;;;10.00;7.63;;;;;;;;;;5038805;28;20029;-64
2021/05/20 07:29:08;;;;;;;10.73;8.32;;;;;;;;;;5040820;28;20029;-63
2021/05/20 07:31:34;;;;;;;9.18;6.75;;;;;;;;;;5041909;28;20023;-62
2021/05/20 07:34:00;;;;;;;12.73;7.90;;;;;;;;;;5041905;28;20029;-64
2021/05/20 07:36:26;;;;;;;8.23;7.22;;;;;;;;;;5040992;28;20025;-63
2021/05/20 07:38:52;;;;;;;11.25;8.25;;;;;;;;;;5044633;28;20020;-63
2021/05/20 07:41:17;;;;;;;10.65;7.18;;;;;;;;;;5039434;28;20021;-63
2021/05/20 07:43:43;;;;;;;11.93;7.82;;;;;;;;;;5040588;28;20025;-63
2021/05/20 07:46:09;;;;;;;9.95;7.60;;;;;;;;;;5038599;28;20021;-63
2021/05/20 07:48:35;;;;;;;10.02;7.70;;;;;;;;;;5051273;28;20398;-64
2021/05/20 07:51:02;;;;;;;10.98;8.35;;;;;;;;;;5060707;28;20059;-63
2021/05/20 07:53:27;;;;;;;13.50;8.45;;;;;;;;;;5063756;28;20120;-64
2021/05/20 07:55:53;;;;;;;10.40;7.97;;;;;;;;;;5071651;28;20508;-65
2021/05/20 07:58:19;;;;;;;11.18;8.93;;;;;;;;;;5060368;28;20019;-65
2021/05/20 08:00:44;;;;;;;13.57;8.73;;;;;;;;;;5051703;28;20029;-67
2021/05/20 08:06:03;;;;;;;14.10;8.50;;;;;;;;;;5069657;28;20039;-63
2021/05/20 08:11:14;;;;;;;16.65;10.18;;;;;;;;;;5058059;28;20117;-64
2021/05/20 08:13:39;;;;;;;12.38;9.45;;;;;;;;;;5058324;28;20505;-65
2021/05/20 08:16:15;;;;;;;11.90;10.13;;;;;;;;;;5068602;28;20105;-66
2021/05/20 08:18:41;;;;;;;11.75;9.55;;;;;;;;;;5058864;28;20021;-65
2021/05/20 08:21:07;;;;;;;15.38;10.77;;;;;;;;;;5063268;28;20106;-65
2021/05/20 08:23:33;;;;;;;15.15;9.73;;;;;;;;;;5055499;28;20124;-66
2021/05/20 08:25:59;;;;;;;12.57;9.95;;;;;;;;;;5066622;28;20096;-66
2021/05/20 08:28:24;;;;;;;13.93;10.15;;;;;;;;;;5071364;28;20099;-67
2021/05/20 08:30:50;;;;;;;16.02;9.98;;;;;;;;;;5053990;28;20069;-63
2021/05/20 08:33:15;;;;;;;13.85;10.00;;;;;;;;;;5051788;28;20012;-64
2021/05/20 08:35:41;;;;;;;15.15;10.95;;;;;;;;;;5051239;28;20104;-63
2021/05/20 08:38:06;;;;;;;13.05;10.55;;;;;;;;;;5042614;28;20470;-63
2021/05/20 08:40:32;;;;;;;11.63;10.30;;;;;;;;;;5065861;28;20366;-63
2021/05/20 08:42:57;;;;;;;12.25;9.70;;;;;;;;;;5060116;28;20086;-66
2021/05/20 08:45:24;;;;;;;11.57;9.40;;;;;;;;;;5058162;28;20075;-65
2021/05/20 08:47:50;;;;;;;14.95;10.48;;;;;;;;;;5055520;28;20036;-66
2021/05/20 08:50:17;;;;;;;13.52;10.02;;;;;;;;;;5047753;28;20021;-66
2021/05/20 08:52:47;;;;;;;15.05;10.63;;;;;;;;;;5048679;28;20016;-66
2021/05/20 08:55:14;;;;;;;13.05;10.77;;;;;;;;;;5060675;28;20066;-67
2021/05/20 08:57:40;;;;;;;14.95;10.13;;;;;;;;;;5057652;28;20013;-65
2021/05/20 09:00:07;;;;;;;15.13;11.00;;;;;;;;;;5054061;28;20028;-65
2021/05/20 09:02:32;;;;;;;17.38;10.60;;;;;;;;;;5069636;28;20056;-65
2021/05/20 09:05:03;;;;;;;13.07;10.13;;;;;;;;;;5060805;28;20055;-65
2021/05/20 09:07:34;;;;;;;14.32;10.73;;;;;;;;;;5057174;28;20025;-66
2021/05/20 09:10:19;;;;;;;14.13;10.90;;;;;;;;;;5067497;28;20139;-66
2021/05/20 09:12:46;;;;;;;12.63;10.60;;;;;;;;;;5050743;28;20064;-65
2021/05/20 09:15:12;;;;;;;15.15;10.90;;;;;;;;;;5050827;28;20017;-65
2021/05/20 09:17:38;;;;;;;14.18;11.20;;;;;;;;;;5054199;28;20017;-65
2021/05/20 09:20:04;;;;;;;14.30;12.07;;;;;;;;;;5053920;28;20425;-65
2021/05/20 09:22:29;;;;;;;17.58;11.70;;;;;;;;;;5044069;28;20083;-67
2021/05/20 09:25:00;;;;;;;18.15;11.38;;;;;;;;;;5045149;28;20021;-67
2021/05/20 09:27:28;;;;;;;13.95;10.85;;;;;;;;;;5052453;28;20067;-67
2021/05/20 09:30:15;;;;;;;14.02;11.32;;;;;;;;;;5053435;28;20380;-64
2021/05/20 09:32:56;;;;;;;15.80;11.85;;;;;;;;;;5052649;28;20025;-69
2021/05/20 09:35:23;;;;;;;17.75;11.45;;;;;;;;;;5053645;28;20441;-67
2021/05/20 09:37:56;;;;;;;15.13;12.52;;;;;;;;;;5043841;28;20112;-67
2021/05/20 09:40:24;;;;;;;15.70;11.15;;;;;;;;;;5052067;28;20024;-64
2021/05/20 09:42:49;;;;;;;14.93;11.30;;;;;;;;;;5051322;28;20031;-65
2021/05/20 09:45:18;;;;;;;16.58;11.60;;;;;;;;;;5055597;28;20088;-63
2021/05/20 09:47:44;;;;;;;14.60;11.55;;;;;;;;;;5053873;28;20530;-64
2021/05/20 09:50:14;;;;;;;17.05;12.95;;;;;;;;;;5042333;28;20037;-66
2021/05/20 09:52:40;;;;;;;13.43;11.18;;;;;;;;;;5043344;28;20063;-64
2021/05/20 09:55:16;;;;;;;21.70;11.57;;;;;;;;;;5043336;28;20029;-65
2021/05/20 09:57:42;;;;;;;14.77;10.95;;;;;;;;;;5036491;28;20418;-65
2021/05/20 10:00:09;;;;;;;15.98;11.55;;;;;;;;;;5038370;28;20018;-65
2021/05/20 10:02:35;;;;;;;15.90;11.60;;;;;;;;;;5042926;28;20021;-65
2021/05/20 10:05:17;;;;;;;15.38;10.93;;;;;;;;;;5042565;28;20023;-65
2021/05/20 10:07:43;;;;;;;15.23;11.45;;;;;;;;;;5044066;28;20377;-65
2021/05/20 10:10:57;;;;;;;504.48;75.80;;;;;;;;;;5081964;27;20391;-68
2021/05/20 10:13:27;;;;;;;21.65;12.35;;;;;;;;;;5070446;28;20354;-64
2021/05/20 10:15:53;;;;;;;15.32;12.07;;;;;;;;;;5070497;28;20013;-62
2021/05/20 10:18:20;;;;;;;15.70;11.48;;;;;;;;;;5060930;28;20016;-71
2021/05/20 10:20:47;;;;;;;20.40;12.60;;;;;;;;;;5068845;28;20023;-68
2021/05/20 10:23:13;;;;;;;16.63;12.55;;;;;;;;;;5066998;28;20016;-68
2021/05/20 10:25:40;;;;;;;16.55;12.93;;;;;;;;;;5060975;28;20063;-67
2021/05/20 10:28:06;;;;;;;14.10;12.20;;;;;;;;;;5056111;28;20129;-67
2021/05/20 10:30:33;;;;;;;18.25;12.40;;;;;;;;;;5060611;28;20025;-67
2021/05/20 10:32:59;;;;;;;15.68;10.80;;;;;;;;;;5051828;28;20052;-66
2021/05/20 10:35:37;;;;;;;15.27;11.60;;;;;;;;;;5062737;28;20056;-65
2021/05/20 10:38:04;;;;;;;21.95;14.23;;;;;;;;;;5051804;28;20017;-66
2021/05/20 10:40:33;;;;;;;17.02;13.30;;;;;;;;;;5051528;28;20558;-67
2021/05/20 10:43:03;;;;;;;18.83;14.43;;;;;;;;;;5053440;28;20021;-67
2021/05/20 10:45:28;;;;;;;16.85;13.80;;;;;;;;;;5049146;28;20021;-67
2021/05/20 10:48:13;;;;;;;25.45;15.25;;;;;;;;;;5048612;28;20028;-65
2021/05/20 10:50:55;;;;;;;20.77;14.30;;;;;;;;;;5060424;28;20029;-69
2021/05/20 10:53:40;;;;;;;18.50;14.00;;;;;;;;;;5067270;28;20059;-69
2021/05/20 10:56:06;;;;;;;19.50;15.02;;;;;;;;;;5065328;28;20499;-64
2021/05/20 10:58:35;;;;;;;18.08;14.57;;;;;;;;;;5060204;28;20023;-65
2021/05/20 11:01:00;;;;;;;;;;;;;;;;;;5067781;28;20020;-64
2021/05/20 11:03:48;;;;;;;18.50;13.87;;;;;;;;;;5059285;28;20015;-67
2021/05/20 11:06:14;;;;;;;22.05;15.80;;;;;;;;;;5069684;28;20262;-65
2021/05/20 11:08:52;;;;;;;20.08;15.75;;;;;;;;;;5055203;28;20017;-66
2021/05/20 11:11:43;;;;;;;26.17;16.90;;;;;;;;;;5060324;28;20078;-68
2021/05/20 11:14:27;;;;;;;32.88;19.40;;;;;;;;;;5069535;28;20017;-64
2021/05/20 11:16:54;;;;;;;26.45;17.63;;;;;;;;;;5060886;28;20020;-69
2021/05/20 11:19:28;;;;;;;24.80;16.80;;;;;;;;;;5067829;28;20016;-69
2021/05/20 11:22:12;;;;;;;22.33;17.90;;;;;;;;;;5066343;28;20052;-65
2021/05/20 11:24:42;;;;;;;24.83;16.08;;;;;;;;;;5054856;28;20013;-65
2021/05/20 11:27:17;;;;;;;26.42;16.63;;;;;;;;;;5054117;28;20032;-67
2021/05/20 11:29:43;;;;;;;24.40;16.35;;;;;;;;;;5035889;28;20490;-66
2021/05/20 11:32:33;;;;;;;26.42;17.95;;;;;;;;;;5061123;28;20050;-68
2021/05/20 11:35:32;;;;;;;19.17;15.83;;;;;;;;;;5051799;28;20481;-66
2021/05/20 11:37:58;;;;;;;18.13;14.63;;;;;;;;;;5054429;28;20021;-65
2021/05/20 11:40:25;;;;;;;22.10;14.52;;;;;;;;;;5054950;28;20028;-69
2021/05/20 11:42:50;;;;;;;23.48;14.25;;;;;;;;;;5053109;28;20021;-70
2021/05/20 11:45:22;;;;;;;18.63;12.77;;;;;;;;;;5051015;28;20023;-69
2021/05/20 11:48:01;;;;;;;13.30;9.70;;;;;;;;;;5066277;28;20528;-70
2021/05/20 11:50:28;;;;;;;9.75;7.28;;;;;;;;;;5061410;28;20024;-73
2021/05/20 11:52:54;;;;;;;8.57;7.38;;;;;;;;;;5053597;28;20009;-69
2021/05/20 11:55:21;;;;;;;10.35;8.30;;;;;;;;;;5071041;28;20093;-70
2021/05/20 11:57:47;;;;;;;8.60;7.47;;;;;;;;;;5067562;28;20044;-69
2021/05/20 12:00:13;;;;;;;9.35;7.50;;;;;;;;;;5061227;28;20419;-68
2021/05/20 12:02:41;;;;;;;11.95;7.97;;;;;;;;;;5061749;28;20021;-72
2021/05/20 12:05:08;;;;;;;11.50;8.10;;;;;;;;;;5068939;28;20017;-66
2021/05/20 12:07:37;;;;;;;11.07;8.85;;;;;;;;;;5055555;28;20103;-67
2021/05/20 12:10:22;;;;;;;10.73;8.97;;;;;;;;;;5065043;28;20037;-69
2021/05/20 12:12:55;;;;;;;13.23;9.70;;;;;;;;;;5065215;28;20276;-73
2021/05/20 12:15:22;;;;;;;12.95;10.35;;;;;;;;;;5053099;28;20052;-68
2021/05/20 12:17:47;;;;;;;14.02;10.20;;;;;;;;;;5068347;28;20874;-69
2021/05/20 12:20:14;;;;;;;14.38;11.07;;;;;;;;;;5055318;28;20108;-67
2021/05/20 12:22:40;;;;;;;18.75;11.70;;;;;;;;;;5041441;28;20021;-67
2021/05/20 12:25:08;;;;;;;16.75;11.90;;;;;;;;;;5047281;28;20430;-67
2021/05/20 12:27:47;;;;;;;14.95;11.50;;;;;;;;;;5071543;28;20427;-66
2021/05/20 12:30:17;;;;;;;14.45;11.90;;;;;;;;;;5072011;28;20040;-68
2021/05/20 12:32:43;;;;;;;15.80;11.88;;;;;;;;;;5058792;28;20545;-67
2021/05/20 12:35:23;;;;;;;15.60;12.75;;;;;;;;;;5067582;28;20021;-66
2021/05/20 12:37:59;;;;;;;14.48;11.68;;;;;;;;;;5042940;28;20078;-63
2021/05/20 12:40:43;;;;;;;18.25;11.00;;;;;;;;;;5062695;28;20090;-70
2021/05/20 12:43:20;;;;;;;14.82;10.35;;;;;;;;;;5051718;28;20021;-70
2021/05/20 12:45:49;;;;;;;12.02;8.90;;;;;;;;;;5041748;28;20024;-63
2021/05/20 12:48:18;;;;;;;7.25;6.53;;;;;;;;;;5060369;28;20017;-62
2021/05/20 12:50:44;;;;;;;7.15;4.68;;;;;;;;;;5049725;28;20443;-64
2021/05/20 12:53:09;;;;;;;7.68;3.20;;;;;;;;;;5053901;28;20013;-62
2021/05/20 12:55:39;;;;;;;4.20;2.53;;;;;;;;;;5066218;28;20507;-70
2021/05/20 12:58:05;;;;;;;4.13;1.70;;;;;;;;;;5034573;28;20022;-69
2021/05/20 13:00:59;;;;;;;1.50;1.40;;;;;;;;;;5061163;28;20135;-69
2021/05/20 13:03:43;;;;;;;2.45;1.30;;;;;;;;;;5043563;28;20025;-64
2021/05/20 13:06:09;;;;;;;1.50;1.25;;;;;;;;;;5042512;28;20017;-66
2021/05/20 13:08:39;;;;;;;1.48;1.38;;;;;;;;;;5041310;28;20473;-63
2021/05/20 13:11:27;;;;;;;4.28;1.10;;;;;;;;;;5040905;28;20029;-65
2021/05/20 13:13:53;;;;;;;2.38;1.23;;;;;;;;;;5051578;28;20036;-72
2021/05/20 13:16:27;;;;;;;1.65;1.50;;;;;;;;;;5061794;28;20482;-68
2021/05/20 13:24:45;;;;;;;4.38;1.63;;;;;;;;;;5044405;28;20074;-68
2021/05/20 13:27:12;;;;;;;2.35;1.70;;;;;;;;;;5042698;28;20023;-65
2021/05/20 13:29:41;;;;;;;3.65;1.75;;;;;;;;;;5045198;28;20485;-64
2021/05/20 13:32:14;;;;;;;2.17;1.77;;;;;;;;;;5049323;28;20048;-71
2021/05/20 13:34:39;;;;;;;4.25;1.95;;;;;;;;;;5055654;28;20028;-72
2021/05/20 13:37:04;;;;;;;3.20;1.90;;;;;;;;;;5069576;28;20016;-67
2021/05/20 13:39:30;;;;;;;2.75;1.40;;;;;;;;;;5057463;28;20652;-65
2021/05/20 13:41:55;;;;;;;1.70;1.60;;;;;;;;;;5049361;28;20017;-66
2021/05/20 13:44:21;;;;;;;2.92;1.80;;;;;;;;;;5044320;28;20017;-71
2021/05/20 13:46:47;;;;;;;3.00;1.88;;;;;;;;;;5051000;28;20025;-65
2021/05/20 13:49:15;;;;;;;2.10;1.80;;;;;;;;;;5035272;28;20100;-67
2021/05/20 13:51:41;;;;;;;5.28;2.22;;;;;;;;;;5050145;28;20028;-66
2021/05/20 13:54:07;;;;;;;3.45;2.05;;;;;;;;;;5048343;28;20104;-66
2021/05/20 13:56:33;;;;;;;3.83;2.13;;;;;;;;;;5044268;28;20561;-66
2021/05/20 13:58:59;;;;;;;3.05;2.53;;;;;;;;;;5051763;28;20025;-64
2021/05/20 14:01:29;;;;;;;2.88;2.22;;;;;;;;;;5050377;28;20455;-66
2021/05/20 14:04:04;;;;;;;1.77;1.40;;;;;;;;;;5062538;28;20023;-66
2021/05/20 14:06:29;;;;;;;2.25;1.83;;;;;;;;;;5060154;28;20525;-66
2021/05/20 14:08:55;;;;;;;2.13;1.55;;;;;;;;;;5064407;28;20145;-62
2021/05/20 14:11:20;;;;;;;2.65;2.42;;;;;;;;;;5064858;28;20497;-64
2021/05/20 14:13:46;;;;;;;2.78;1.90;;;;;;;;;;5065604;28;20462;-65
2021/05/20 14:16:11;;;;;;;3.53;1.65;;;;;;;;;;5054536;28;20105;-63
2021/05/20 14:18:37;;;;;;;2.92;2.00;;;;;;;;;;5047495;28;20017;-63
2021/05/20 14:21:04;;;;;;;1.92;1.73;;;;;;;;;;5037059;28;20018;-67
2021/05/20 14:23:29;;;;;;;5.35;1.90;;;;;;;;;;5047100;28;20016;-68
2021/05/20 14:25:55;;;;;;;2.13;1.90;;;;;;;;;;5040916;28;20028;-67
2021/05/20 14:28:21;;;;;;;3.25;2.30;;;;;;;;;;5042626;28;20127;-63
2021/05/20 14:30:46;;;;;;;2.85;1.52;;;;;;;;;;5049892;28;20044;-63
2021/05/20 14:33:12;;;;;;;5.05;1.88;;;;;;;;;;5036351;28;20021;-64
2021/05/20 14:35:37;;;;;;;5.60;2.13;;;;;;;;;;5047815;28;20037;-62
2021/05/20 14:38:03;;;;;;;1.70;1.60;;;;;;;;;;5034543;28;20026;-62
2021/05/20 14:40:29;;;;;;;2.03;1.20;;;;;;;;;;5037050;28;20029;-63
2021/05/20 14:42:55;;;;;;;3.88;1.77;;;;;;;;;;5033590;28;20142;-62
2021/05/20 14:45:21;;;;;;;3.20;1.60;;;;;;;;;;5043544;28;20458;-64
2021/05/20 14:47:47;;;;;;;2.00;1.33;;;;;;;;;;5040609;28;20108;-63
2021/05/20 14:50:14;;;;;;;1.75;1.48;;;;;;;;;;5031920;28;20025;-63
2021/05/20 14:52:44;;;;;;;1.65;1.30;;;;;;;;;;5032143;28;20028;-63
2021/05/20 14:55:38;;;;;;;2.45;1.30;;;;;;;;;;5031352;28;20112;-64
2021/05/20 15:06:18;;;;;;;2.50;1.15;;;;;;;;;;5055599;28;20043;-63
2021/05/20 15:08:47;;;;;;;2.17;1.42;;;;;;;;;;5054465;28;20040;-63
2021/05/20 15:11:22;;;;;;;2.40;1.45;;;;;;;;;;5054907;28;20029;-63
2021/05/20 15:14:03;;;;;;;2.28;1.55;;;;;;;;;;5053168;28;20055;-63
2021/05/20 15:16:31;;;;;;;2.58;1.40;;;;;;;;;;5054620;28;20057;-63
2021/05/20 15:18:56;;;;;;;4.22;1.50;;;;;;;;;;5055206;28;20019;-63
2021/05/20 15:21:23;;;;;;;4.22;1.38;;;;;;;;;;5055363;28;20121;-63
2021/05/20 15:23:49;;;;;;;3.78;1.60;;;;;;;;;;5054535;28;20402;-63
2021/05/20 15:26:15;;;;;;;3.60;1.70;;;;;;;;;;5055089;28;20013;-63
2021/05/20 15:28:41;;;;;;;2.28;1.90;;;;;;;;;;5054921;28;20021;-63
2021/05/20 15:31:07;;;;;;;1.83;1.50;;;;;;;;;;5052956;28;20385;-64
2021/05/20 15:33:37;;;;;;;3.40;1.83;;;;;;;;;;5055072;28;20021;-63
2021/05/20 15:36:02;;;;;;;;;;;;;;;;;;5055335;28;20013;-64
2021/05/20 15:38:28;;;;;;;1.73;1.63;;;;;;;;;;5054209;28;19915;-63
2021/05/20 15:40:54;;;;;;;2.17;1.95;;;;;;;;;;5054691;28;20246;-63
2021/05/20 15:43:20;;;;;;;2.38;1.70;;;;;;;;;;5053981;28;20039;-64
2021/05/20 15:45:46;;;;;;;3.60;1.80;;;;;;;;;;5054151;28;20381;-63
2021/05/20 15:48:44;;;;;;;4.20;2.03;;;;;;;;;;5054499;28;20499;-63
2021/05/20 15:51:06;;;;;;;1.67;1.58;;;;;;;;;;5052327;28;20420;-64
2021/05/20 15:53:32;;;;;;;3.38;1.90;;;;;;;;;;5053635;28;20017;-63
2021/05/20 15:55:58;;;;;;;2.30;1.77;;;;;;;;;;5054384;28;20009;-64
2021/05/20 15:58:24;;;;;;;2.10;1.90;;;;;;;;;;5054346;28;20394;-63
2021/05/20 16:00:50;;;;;;;5.78;2.33;;;;;;;;;;5053651;28;20373;-63
2021/05/20 16:03:16;;;;;;;5.43;2.10;;;;;;;;;;5052656;28;20103;-64
2021/05/20 16:05:42;;;;;;;2.40;2.20;;;;;;;;;;5034403;28;20067;-63
2021/05/20 16:08:21;;;;;;;2.50;2.28;;;;;;;;;;5034003;28;20100;-64
2021/05/20 16:16:15;;;;;;;3.92;2.90;;;;;;;;;;5033979;28;20032;-63
2021/05/20 16:18:42;;;;;;;3.88;3.45;;;;;;;;;;5034137;28;20104;-63
2021/05/20 16:21:09;;;;;;;3.35;2.88;;;;;;;;;;5033972;28;20021;-64
2021/05/20 16:23:57;;;;;;;3.13;2.67;;;;;;;;;;5033647;28;20014;-63
2021/05/20 16:26:58;;;;;;;3.60;2.97;;;;;;;;;;5034346;28;20094;-63
2021/05/20 16:37:38;;;;;;;7.65;2.70;;;;;;;;;;5033115;28;20047;-63
2021/05/20 16:40:04;;;;;;;8.63;2.90;;;;;;;;;;5033692;28;20466;-63
2021/05/20 16:42:30;;;;;;;4.30;2.60;;;;;;;;;;5033561;28;20025;-63
2021/05/20 16:44:56;;;;;;;3.03;2.60;;;;;;;;;;5032375;28;20018;-63
2021/05/20 16:47:23;;;;;;;3.28;2.97;;;;;;;;;;5033508;28;20107;-63
2021/05/20 16:49:48;;;;;;;7.50;3.25;;;;;;;;;;5033554;28;20091;-63
2021/05/20 16:52:14;;;;;;;5.07;2.90;;;;;;;;;;5033147;28;20448;-63
2021/05/20 16:57:27;;;;;;;4.85;2.67;;;;;;;;;;5033271;28;20362;-63
2021/05/20 16:59:52;;;;;;;5.68;3.20;;;;;;;;;;5033133;28;20401;-63
2021/05/20 17:02:19;;;;;;;6.47;3.35;;;;;;;;;;5033432;28;20023;-63
2021/05/20 17:04:46;;;;;;;4.15;2.92;;;;;;;;;;5047136;28;20036;-63
2021/05/20 17:07:14;;;;;;;4.25;3.22;;;;;;;;;;5052227;28;20017;-63
2021/05/20 17:09:41;;;;;;;6.22;3.50;;;;;;;;;;5052731;28;20131;-62
2021/05/20 17:12:07;;;;;;;7.75;4.22;;;;;;;;;;5052906;28;20469;-63
2021/05/20 17:14:34;;;;;;;9.68;3.90;;;;;;;;;;5051825;28;20429;-62
2021/05/20 17:16:59;;;;;;;5.00;3.60;;;;;;;;;;5052766;28;20098;-62
2021/05/20 17:19:25;;;;;;;4.97;3.72;;;;;;;;;;5052128;28;20028;-64
2021/05/20 17:21:51;;;;;;;6.53;4.07;;;;;;;;;;5052367;28;20055;-63
2021/05/20 17:24:18;;;;;;;5.07;3.78;;;;;;;;;;5052883;28;20017;-63
2021/05/20 17:26:44;;;;;;;5.18;4.40;;;;;;;;;;5051779;28;20480;-63
2021/05/20 17:29:10;;;;;;;6.40;3.95;;;;;;;;;;5050916;28;20017;-64
2021/05/20 17:31:37;;;;;;;5.13;3.72;;;;;;;;;;5052589;28;20033;-64
2021/05/20 17:34:02;;;;;;;6.47;4.55;;;;;;;;;;5052808;28;20028;-64
2021/05/20 17:36:28;;;;;;;5.63;3.97;;;;;;;;;;5052320;28;20028;-63
2021/05/20 17:38:55;;;;;;;5.40;3.50;;;;;;;;;;5052103;28;20025;-62
2021/05/20 17:41:24;;;;;;;6.18;4.38;;;;;;;;;;5052439;28;20024;-63
2021/05/20 17:43:50;;;;;;;7.63;4.03;;;;;;;;;;5052028;28;20465;-63
2021/05/20 17:46:17;;;;;;;5.32;4.38;;;;;;;;;;5051837;28;20017;-63
2021/05/20 17:48:44;;;;;;;5.82;4.32;;;;;;;;;;5050756;28;20028;-63
2021/05/20 17:51:10;;;;;;;10.63;4.10;;;;;;;;;;5052338;28;20063;-64
2021/05/20 17:53:36;;;;;;;11.25;4.57;;;;;;;;;;5052128;28;20078;-63
2021/05/20 17:56:03;;;;;;;8.82;3.90;;;;;;;;;;5052520;28;20496;-63
2021/05/20 17:58:28;;;;;;;5.82;4.32;;;;;;;;;;5052279;28;20050;-63
2021/05/20 18:00:55;;;;;;;7.93;4.35;;;;;;;;;;5051870;28;20017;-63
2021/05/20 18:03:23;;;;;;;8.00;4.43;;;;;;;;;;5050008;28;20020;-63
2021/05/20 18:05:48;;;;;;;13.60;5.07;;;;;;;;;;5032245;28;20116;-63
2021/05/20 18:08:16;;;;;;;10.30;4.78;;;;;;;;;;5031725;28;20116;-63
2021/05/20 18:11:01;;;;;;;13.32;5.80;;;;;;;;;;5031763;28;20065;-63
2021/05/20 18:13:42;;;;;;;12.75;6.60;;;;;;;;;;5030268;28;20027;-64
2021/05/20 18:16:15;;;;;;;19.10;7.78;;;;;;;;;;5032351;28;21041;-64
2021/05/20 18:19:05;;;;;;;18.55;8.10;;;;;;;;;;5031199;28;20116;-63
2021/05/20 18:24:13;;;;;;;16.83;6.82;;;;;;;;;;5032377;28;20079;-63
2021/05/20 18:26:40;;;;;;;18.92;8.80;;;;;;;;;;5032327;28;20025;-63
2021/05/20 18:29:06;;;;;;;16.13;7.07;;;;;;;;;;5031309;28;20107;-63
2021/05/20 18:31:33;;;;;;;10.80;5.47;;;;;;;;;;5033753;28;20072;-63
2021/05/20 18:34:00;;;;;;;9.18;5.13;;;;;;;;;;5036441;28;20061;-63
2021/05/20 18:36:26;;;;;;;10.13;5.82;;;;;;;;;;5035692;28;20087;-63
2021/05/20 18:38:53;;;;;;;6.70;5.38;;;;;;;;;;5035847;28;20021;-63
2021/05/20 18:41:21;;;;;;;9.80;5.78;;;;;;;;;;5035822;28;20025;-63
2021/05/20 18:43:47;;;;;;;7.43;5.47;;;;;;;;;;5034787;28;20025;-63
2021/05/20 18:46:13;;;;;;;7.35;5.28;;;;;;;;;;5036099;28;20036;-63
2021/05/20 18:48:39;;;;;;;8.65;5.25;;;;;;;;;;5035705;28;20051;-63
2021/05/20 18:51:06;;;;;;;13.80;7.28;;;;;;;;;;5033805;28;20120;-63
2021/05/20 18:53:32;;;;;;;17.48;12.38;;;;;;;;;;5035459;28;20029;-64
2021/05/20 18:55:59;;;;;;;30.55;20.45;;;;;;;;;;5035786;28;20113;-63
2021/05/20 18:58:25;;;;;;;18.10;12.38;;;;;;;;;;5034986;28;20036;-64
2021/05/20 19:00:51;;;;;;;17.70;11.73;;;;;;;;;;5035638;28;20429;-63
2021/05/20 19:03:19;;;;;;;28.67;14.43;;;;;;;;;;5037142;28;20029;-63
2021/05/20 19:05:48;;;;;;;21.58;12.70;;;;;;;;;;5054836;28;20139;-63
2021/05/20 19:08:15;;;;;;;25.67;12.48;;;;;;;;;;5055520;28;20041;-63
2021/05/20 19:10:43;;;;;;;14.57;10.32;;;;;;;;;;5054865;28;20412;-63
2021/05/20 19:13:09;;;;;;;19.50;10.65;;;;;;;;;;5052821;28;20029;-63
2021/05/20 19:15:39;;;;;;;19.48;10.63;;;;;;;;;;5054064;28;20381;-63
2021/05/20 19:18:09;;;;;;;15.20;9.73;;;;;;;;;;5054248;28;20019;-63
2021/05/20 19:20:37;;;;;;;16.48;9.23;;;;;;;;;;5054450;28;20060;-64
2021/05/20 19:23:04;;;;;;;10.90;8.38;;;;;;;;;;5055027;28;20035;-63
2021/05/20 19:25:30;;;;;;;12.00;8.18;;;;;;;;;;5054905;28;20094;-63
2021/05/20 19:27:55;;;;;;;11.55;8.40;;;;;;;;;;5054630;28;20017;-63
2021/05/20 19:30:25;;;;;;;14.80;8.60;;;;;;;;;;5054941;28;20025;-63
2021/05/20 19:32:51;;;;;;;;;;;;;;;;;;5055467;28;20005;-63
2021/05/20 19:35:17;;;;;;;17.27;10.80;;;;;;;;;;5054591;28;19954;-63
2021/05/20 19:37:48;;;;;;;17.02;10.20;;;;;;;;;;5054960;28;20056;-63
2021/05/20 19:40:15;;;;;;;16.55;10.90;;;;;;;;;;5054724;28;20533;-63
2021/05/20 19:42:41;;;;;;;21.55;10.98;;;;;;;;;;5053808;28;20029;-63
2021/05/20 19:45:08;;;;;;;32.00;20.15;;;;;;;;;;5053920;28;20477;-63
2021/05/20 19:47:33;;;;;;;38.15;22.75;;;;;;;;;;5054586;28;20469;-62
2021/05/20 19:50:10;;;;;;;33.63;19.15;;;;;;;;;;5053759;28;20044;-63
2021/05/20 20:00:47;;;;;;;30.13;15.73;;;;;;;;;;5054514;28;20106;-63
2021/05/20 20:03:24;;;;;;;30.50;20.63;;;;;;;;;;5052831;28;20111;-63
2021/05/20 20:11:06;;;;;;;18.33;12.50;;;;;;;;;;5033975;28;20103;-63
2021/05/20 20:13:31;;;;;;;26.70;12.88;;;;;;;;;;5033124;28;20426;-63
2021/05/20 20:15:57;;;;;;;24.95;14.48;;;;;;;;;;5034267;28;20060;-63
2021/05/20 20:18:32;;;;;;;22.88;15.27;;;;;;;;;;5034046;28;20028;-63
2021/05/20 20:21:01;;;;;;;28.15;14.48;;;;;;;;;;5033717;28;20028;-63
2021/05/20 20:23:37;;;;;;;22.57;13.30;;;;;;;;;;5033806;28;20034;-64
2021/05/20 20:28:48;;;;;;;19.02;12.32;;;;;;;;;;5033567;28;20397;-63
2021/05/20 20:31:14;;;;;;;21.13;13.75;;;;;;;;;;5033673;28;20021;-63
2021/05/20 20:36:27;;;;;;;18.15;12.65;;;;;;;;;;5053466;28;20043;-63
2021/05/20 20:41:37;;;;;;;19.83;12.52;;;;;;;;;;5053609;28;20031;-63
2021/05/20 20:44:03;;;;;;;17.83;12.50;;;;;;;;;;5052733;28;20388;-63
2021/05/20 20:46:30;;;;;;;17.00;12.10;;;;;;;;;;5053118;28;20042;-63
2021/05/20 20:48:56;;;;;;;18.65;11.73;;;;;;;;;;5053405;28;20432;-63
2021/05/20 20:51:23;;;;;;;16.00;12.05;;;;;;;;;;5053031;28;20033;-63
2021/05/20 20:53:51;;;;;;;20.98;12.32;;;;;;;;;;5052833;28;20024;-63
2021/05/20 20:56:19;;;;;;;17.20;11.25;;;;;;;;;;5053177;28;20091;-63
2021/05/20 20:58:46;;;;;;;18.40;11.80;;;;;;;;;;5050795;28;20041;-63
2021/05/20 21:01:16;;;;;;;22.20;11.68;;;;;;;;;;5053324;28;20013;-64
2021/05/20 21:03:41;;;;;;;15.98;12.25;;;;;;;;;;5052997;28;20473;-63
2021/05/20 21:06:07;;;;;;;16.35;11.77;;;;;;;;;;5052705;28;20017;-63
2021/05/20 21:08:33;;;;;;;18.42;12.73;;;;;;;;;;5052713;28;20017;-63
2021/05/20 21:10:58;;;;;;;16.90;12.25;;;;;;;;;;5052911;28;20075;-63
2021/05/20 21:13:24;;;;;;;19.33;12.27;;;;;;;;;;5052088;28;20013;-63
2021/05/20 21:15:51;;;;;;;17.35;12.18;;;;;;;;;;5052849;28;20017;-63
2021/05/20 21:18:18;;;;;;;17.02;11.75;;;;;;;;;;5052995;28;20420;-64
2021/05/20 21:20:44;;;;;;;18.90;12.02;;;;;;;;;;5052298;28;20071;-63
2021/05/20 21:23:10;;;;;;;14.27;10.18;;;;;;;;;;5052965;28;20378;-63
2021/05/20 21:25:35;;;;;;;13.68;9.45;;;;;;;;;;5052980;28;20024;-63
2021/05/20 21:28:01;;;;;;;15.82;10.73;;;;;;;;;;5052391;28;20389;-63
2021/05/20 21:30:26;;;;;;;18.70;10.95;;;;;;;;;;5052298;28;20068;-63
2021/05/20 21:32:52;;;;;;;15.10;10.27;;;;;;;;;;5052785;28;20025;-63
2021/05/20 21:35:18;;;;;;;18.27;9.57;;;;;;;;;;5052210;28;20104;-63
2021/05/20 21:37:44;;;;;;;14.07;9.18;;;;;;;;;;5051655;28;20033;-62
2021/05/20 21:40:11;;;;;;;16.23;9.57;;;;;;;;;;5052585;28;20366;-63
2021/05/20 21:42:37;;;;;;;16.60;9.10;;;;;;;;;;5052139;28;20017;-63
2021/05/20 21:45:04;;;;;;;16.75;9.30;;;;;;;;;;5051674;28;20016;-63
2021/05/20 21:47:30;;;;;;;13.63;9.32;;;;;;;;;;5052703;28;20013;-63
2021/05/20 21:49:56;;;;;;;11.98;8.27;;;;;;;;;;5051851;28;20087;-63